E.r.brandenburg — A8SZ5 — position and weather

sailwx.info

Track history (hours):
 
Tides and Currents Weather Stations Pressure Air Temp Water Temp Dewpoint Dewpoint Depression Visibility Wind Speed Wind Dir Waves Ship Positions

E.r.brandenburg

Last reported at 2015-May-03 18:33 UTC. Time now 2015-May-03 18:54 UTC.
Position N 34°14' E 135°08'.

Length 292 m; draft 14.5 m.

Type: Cargo ship. MMSI: 636091798.

Date/timePositionNaut miles runAvg speedWind from/ knotsBaromVisibWave heightAir tempDewpointWater temp
2015-May-03 18:33N 34°14' E 135°08'0 0.0
2015-May-03 17:33N 34°14' E 135°08'0 0.0
2015-May-03 16:33N 34°14' E 135°08'0 0.0
2015-May-03 15:33N 34°14' E 135°08'0 0.0
2015-May-03 14:33N 34°14' E 135°08'0 0.0
2015-May-03 13:30N 34°14' E 135°08'0 0.0
2015-May-03 12:33N 34°14' E 135°08'0 0.0
2015-May-03 11:33N 34°14' E 135°08'2 1.9
2015-May-03 10:33N 34°13' E 135°06'0 0.1
2015-May-03 09:32N 34°13' E 135°06'0 0.0
2015-May-03 08:29N 34°13' E 135°06'0 0.1
2015-May-03 07:32N 34°13' E 135°06'0 0.0
2015-May-03 06:32N 34°13' E 135°06'0 0.1
2015-May-03 05:26N 34°13' E 135°06'0 0.1
2015-May-03 04:32N 34°13' E 135°06'0 0.1
2015-May-03 03:29N 34°13' E 135°06'0 0.2
2015-May-03 02:26N 34°13' E 135°06'0 0.1
2015-May-03 01:32N 34°13' E 135°06'0 0.1
2015-May-03 00:32N 34°13' E 135°05'0 0.0
2015-May-02 23:32N 34°13' E 135°05'0 0.0
2015-May-02 22:32N 34°13' E 135°05'0 0.0
2015-May-02 21:32N 34°13' E 135°05'0 0.1
2015-May-02 20:32N 34°13' E 135°06'0 0.0
2015-May-02 19:26N 34°13' E 135°06'0 0.1
2015-May-02 18:32N 34°13' E 135°05'0 0.1
2015-May-02 17:32N 34°13' E 135°06'0 0.1
2015-May-02 16:32N 34°13' E 135°06'0 0.0
2015-May-02 15:32N 34°13' E 135°06'0 0.0
2015-May-02 14:32N 34°13' E 135°06'0 0.1
2015-May-02 13:32N 34°13' E 135°06'0 0.1
2015-May-02 12:32N 34°13' E 135°06'0 0.1
2015-May-02 11:32N 34°13' E 135°06'0 0.0
2015-May-02 10:32N 34°13' E 135°06'0 0.0
2015-May-02 09:32N 34°13' E 135°06'0 0.0
2015-May-02 08:32N 34°13' E 135°06'0 0.0
2015-May-02 07:32N 34°13' E 135°06'0 0.1
2015-May-02 06:32N 34°13' E 135°06'0 0.0
2015-May-02 05:29N 34°13' E 135°06'0 0.1
2015-May-02 04:29N 34°13' E 135°06'0 0.0
2015-May-02 03:32N 34°13' E 135°06'0 0.3
2015-May-02 02:32N 34°13' E 135°05'0 0.0
2015-May-02 01:32N 34°13' E 135°05'0 0.1
2015-May-02 00:26N 34°13' E 135°06'0 0.1
2015-May-01 23:29N 34°13' E 135°05'0 0.0
2015-May-01 22:32N 34°13' E 135°05'0 0.0
2015-May-01 21:32N 34°13' E 135°05'0 0.0
2015-May-01 20:29N 34°13' E 135°05'0 0.1
2015-May-01 19:32N 34°13' E 135°06'0 0.0
2015-May-01 18:32N 34°13' E 135°06'0 0.2
2015-May-01 17:32N 34°13' E 135°06'0 0.1
2015-May-01 16:32N 34°13' E 135°06'0 0.0
2015-May-01 15:32N 34°13' E 135°06'0 0.0
2015-May-01 14:32N 34°13' E 135°06'0 0.0
2015-May-01 13:32N 34°13' E 135°06'0 0.2
2015-May-01 12:32N 34°13' E 135°06'0 0.2
2015-May-01 11:32N 34°13' E 135°06'0 0.0
2015-May-01 10:32N 34°13' E 135°06'0 0.0
2015-May-01 09:32N 34°13' E 135°06'0 0.0
2015-May-01 08:32N 34°13' E 135°06'0 0.0
2015-May-01 07:32N 34°13' E 135°06'0 0.0
2015-May-01 06:32N 34°13' E 135°06'0 0.1
2015-May-01 05:32N 34°13' E 135°06'0 0.1
2015-May-01 04:32N 34°13' E 135°06'0 0.1
2015-May-01 03:32N 34°13' E 135°06'0 0.0
2015-May-01 02:29N 34°13' E 135°06'0 0.2
2015-May-01 01:29N 34°13' E 135°06'0 0.2
2015-May-01 00:32N 34°13' E 135°05'0 0.0
2015-Apr-30 23:32N 34°13' E 135°05'0 0.0
2015-Apr-30 22:26N 34°13' E 135°05'0 0.3
2015-Apr-30 21:33N 34°13' E 135°06'5 5.4
2015-Apr-30 20:34N 34°09' E 135°01'1311.7
2015-Apr-30 19:25N 33°56' E 134°57'22810.3
2015-Apr-29 21:25N 34°55' E 139°24'1112.6
2015-Apr-29 20:33N 35°02' E 139°34'1212.3
2015-Apr-29 19:33N 35°10' E 139°45'1111.1
2015-Apr-29 18:34N 35°21' E 139°42'7 6.9
2015-Apr-29 17:33N 35°23' E 139°51'1 1.4
2015-Apr-29 16:32N 35°22' E 139°52'0 0.0
2015-Apr-29 15:32N 35°22' E 139°52'0 0.0
2015-Apr-29 14:32N 35°22' E 139°52'0 0.0
2015-Apr-29 13:29N 35°22' E 139°52'0 0.0
2015-Apr-29 12:29N 35°22' E 139°52'0 0.0
2015-Apr-29 11:32N 35°22' E 139°52'0 0.0
2015-Apr-29 10:29N 35°22' E 139°52'0 0.0
2015-Apr-29 09:32N 35°22' E 139°52'0 0.0
2015-Apr-29 08:32N 35°22' E 139°52'0 0.0
2015-Apr-29 07:29N 35°22' E 139°52'0 0.0
2015-Apr-29 06:26N 35°22' E 139°52'0 0.0
2015-Apr-29 05:32N 35°22' E 139°52'0 0.0
2015-Apr-29 04:32N 35°22' E 139°52'0 0.0
2015-Apr-29 03:29N 35°22' E 139°52'0 0.0
2015-Apr-29 02:32N 35°22' E 139°52'0 0.0
2015-Apr-29 01:32N 35°22' E 139°52'0 0.0
2015-Apr-29 00:32N 35°22' E 139°52'0 0.0
2015-Apr-28 23:29N 35°22' E 139°52'0 0.0
2015-Apr-28 22:32N 35°22' E 139°52'0 0.0
2015-Apr-28 21:32N 35°22' E 139°52'0 0.0
2015-Apr-28 20:32N 35°22' E 139°52'0 0.0
2015-Apr-28 19:29N 35°22' E 139°52'0 0.0
2015-Apr-28 18:32N 35°22' E 139°52'0 0.0
2015-Apr-28 17:32N 35°22' E 139°52'0 0.0
2015-Apr-28 16:29N 35°22' E 139°52'0 0.0
2015-Apr-28 15:29N 35°22' E 139°52'0 0.0
2015-Apr-28 14:29N 35°22' E 139°52'0 0.0
2015-Apr-28 13:32N 35°22' E 139°52'0 0.0
2015-Apr-28 12:29N 35°22' E 139°52'0 0.0
2015-Apr-28 11:32N 35°22' E 139°52'0 0.0
2015-Apr-28 10:14N 35°22' E 139°52'0 0.0
2015-Apr-28 09:32N 35°22' E 139°52'0 0.0
2015-Apr-28 08:32N 35°22' E 139°52'0 0.0
2015-Apr-28 07:33N 35°22' E 139°52'4 3.7
2015-Apr-28 06:33N 35°24' E 139°48'4 3.3
2015-Apr-28 05:28N 35°27' E 139°51'0 0.1
2015-Apr-28 04:31N 35°27' E 139°51'0 0.0
2015-Apr-28 03:22N 35°27' E 139°51'0 0.0
2015-Apr-28 02:31N 35°27' E 139°51'0 0.1
2015-Apr-28 01:31N 35°27' E 139°51'0 0.0
2015-Apr-28 00:31N 35°27' E 139°51'0 0.0
2015-Apr-27 23:31N 35°27' E 139°51'0 0.0
2015-Apr-27 22:28N 35°27' E 139°51'0 0.1
2015-Apr-27 21:31N 35°27' E 139°51'0 0.0
2015-Apr-27 20:19N 35°27' E 139°51'0 0.1
2015-Apr-27 19:31N 35°27' E 139°51'0 0.0
2015-Apr-27 18:31N 35°27' E 139°51'0 0.0
2015-Apr-27 17:31N 35°27' E 139°51'0 0.0
2015-Apr-27 16:31N 35°27' E 139°51'0 0.0
2015-Apr-27 15:25N 35°27' E 139°51'0 0.0
2015-Apr-27 14:22N 35°27' E 139°51'0 0.0
2015-Apr-27 13:28N 35°27' E 139°51'0 0.1
2015-Apr-27 12:31N 35°27' E 139°51'0 0.0
2015-Apr-27 11:31N 35°27' E 139°51'0 0.0
2015-Apr-27 10:19N 35°27' E 139°51'0 0.0
2015-Apr-27 09:28N 35°27' E 139°51'0 0.0
2015-Apr-27 08:28N 35°27' E 139°51'0 0.0
2015-Apr-27 07:25N 35°27' E 139°51'0 0.0
2015-Apr-27 06:22N 35°27' E 139°51'0 0.0
2015-Apr-27 05:31N 35°27' E 139°51'0 0.0
2015-Apr-27 04:16N 35°27' E 139°51'0 0.0
2015-Apr-27 03:31N 35°27' E 139°51'0 0.1
2015-Apr-27 02:31N 35°27' E 139°51'0 0.1
2015-Apr-27 01:31N 35°27' E 139°51'0 0.0
2015-Apr-27 00:25N 35°27' E 139°51'0 0.0
2015-Apr-26 23:28N 35°27' E 139°51'0 0.0
2015-Apr-26 22:28N 35°27' E 139°51'0 0.0
2015-Apr-26 21:31N 35°27' E 139°51'0 0.1
2015-Apr-26 20:28N 35°27' E 139°51'0 0.1
2015-Apr-26 19:25N 35°27' E 139°51'0 0.1
2015-Apr-26 18:31N 35°27' E 139°51'0 0.0
2015-Apr-26 17:31N 35°27' E 139°51'0 0.0
2015-Apr-26 16:25N 35°27' E 139°51'0 0.0
2015-Apr-26 15:19N 35°27' E 139°51'0 0.0
2015-Apr-26 14:31N 35°27' E 139°51'0 0.0
2015-Apr-26 13:31N 35°27' E 139°51'0 0.0
2015-Apr-26 12:31N 35°27' E 139°51'0 0.0
2015-Apr-26 11:31N 35°27' E 139°51'0 0.1
2015-Apr-26 10:31N 35°27' E 139°51'0 0.0
2015-Apr-26 09:31N 35°27' E 139°51'0 0.0
2015-Apr-26 08:31N 35°27' E 139°51'0 0.1
2015-Apr-26 07:31N 35°27' E 139°51'0 0.2
2015-Apr-26 06:31N 35°27' E 139°51'0 0.0
2015-Apr-26 05:31N 35°27' E 139°51'0 0.1
2015-Apr-26 04:31N 35°27' E 139°51'0 0.0
2015-Apr-26 03:16N 35°27' E 139°51'0 0.0
2015-Apr-26 02:31N 35°27' E 139°51'0 0.0
2015-Apr-26 01:22N 35°27' E 139°51'0 0.0
2015-Apr-26 00:31N 35°27' E 139°51'0 0.0
2015-Apr-25 23:31N 35°27' E 139°51'0 0.0
2015-Apr-25 22:31N 35°27' E 139°51'0 0.0
2015-Apr-25 21:28N 35°27' E 139°51'0 0.0
2015-Apr-25 20:31N 35°27' E 139°51'0 0.0
2015-Apr-25 19:31N 35°27' E 139°51'0 0.1
2015-Apr-25 18:31N 35°27' E 139°51'0 0.0
2015-Apr-25 17:31N 35°27' E 139°51'0 0.0
2015-Apr-25 16:31N 35°27' E 139°51'0 0.0
2015-Apr-25 15:31N 35°27' E 139°51'0 0.2
2015-Apr-25 14:31N 35°27' E 139°51'0 0.2
2015-Apr-25 13:31N 35°27' E 139°51'0 0.1
2015-Apr-25 12:31N 35°27' E 139°51'0 0.0
2015-Apr-25 11:31N 35°27' E 139°51'0 0.0
2015-Apr-25 10:31N 35°27' E 139°51'0 0.0
2015-Apr-25 09:31N 35°27' E 139°51'0 0.1
2015-Apr-25 08:31N 35°27' E 139°51'0 0.1
2015-Apr-25 07:28N 35°27' E 139°51'0 0.1
2015-Apr-25 06:31N 35°27' E 139°51'0 0.0
2015-Apr-25 05:31N 35°27' E 139°51'0 0.1
2015-Apr-25 04:31N 35°27' E 139°51'0 0.1
2015-Apr-25 03:31N 35°27' E 139°51'0 0.0
2015-Apr-25 02:31N 35°27' E 139°51'0 0.0
2015-Apr-25 01:28N 35°27' E 139°51'0 0.1
2015-Apr-25 00:25N 35°27' E 139°51'0 0.1
2015-Apr-24 23:31N 35°27' E 139°51'0 0.1
2015-Apr-24 22:31N 35°27' E 139°51'0 0.1
2015-Apr-24 21:31N 35°27' E 139°51'0 0.0
2015-Apr-24 20:28N 35°27' E 139°51'0 0.1
2015-Apr-24 19:31N 35°27' E 139°51'0 0.0
2015-Apr-24 18:28N 35°27' E 139°51'0 0.0
2015-Apr-24 17:31N 35°27' E 139°51'0 0.0
2015-Apr-24 16:33N 35°27' E 139°51'0 0.0
2015-Apr-24 15:32N 35°27' E 139°51'0 0.0
2015-Apr-24 14:33N 35°27' E 139°51'0 0.0
2015-Apr-24 13:33N 35°27' E 139°51'0 0.0
2015-Apr-24 12:33N 35°27' E 139°51'0 0.0
2015-Apr-24 11:33N 35°27' E 139°51'0 0.0
2015-Apr-24 10:33N 35°27' E 139°51'0 0.0
2015-Apr-24 09:33N 35°27' E 139°51'0 0.0
2015-Apr-24 08:33N 35°27' E 139°51'0 0.0
2015-Apr-24 07:33N 35°27' E 139°51'0 0.0
2015-Apr-24 06:33N 35°27' E 139°51'0 0.0
2015-Apr-24 05:30N 35°27' E 139°51'0 0.1
2015-Apr-24 04:33N 35°27' E 139°51'0 0.1
2015-Apr-24 03:33N 35°27' E 139°51'0 0.2
2015-Apr-24 02:33N 35°27' E 139°51'0 0.1
2015-Apr-24 01:33N 35°27' E 139°51'0 0.1
2015-Apr-24 00:33N 35°27' E 139°51'0 0.2
2015-Apr-23 23:33N 35°27' E 139°51'0 0.1
2015-Apr-23 22:33N 35°27' E 139°51'0 0.0
2015-Apr-23 21:33N 35°27' E 139°51'0 0.1
2015-Apr-23 20:33N 35°27' E 139°51'0 0.0
2015-Apr-23 19:27N 35°27' E 139°51'  
Track history (hours):
 
Tides and Currents Weather Stations Pressure Air Temp Water Temp Dewpoint Dewpoint Depression Visibility Wind Speed Wind Dir Waves Ship Positions

E.r.brandenburg

Last reported at 2015-May-03 18:33 UTC. Time now 2015-May-03 18:54 UTC.
Position N 34°14' E 135°08'.

Length 292 m; draft 14.5 m.

Type: Cargo ship. MMSI: 636091798.

Date/timePositionNaut miles runAvg speedWind from/ knotsBaromVisibWave heightAir tempDewpointWater temp
2015-May-03 18:33N 34°14' E 135°08'0 0.0
2015-May-03 17:33N 34°14' E 135°08'0 0.0
2015-May-03 16:33N 34°14' E 135°08'0 0.0
2015-May-03 15:33N 34°14' E 135°08'0 0.0
2015-May-03 14:33N 34°14' E 135°08'0 0.0
2015-May-03 13:30N 34°14' E 135°08'0 0.0
2015-May-03 12:33N 34°14' E 135°08'0 0.0
2015-May-03 11:33N 34°14' E 135°08'2 1.9
2015-May-03 10:33N 34°13' E 135°06'0 0.1
2015-May-03 09:32N 34°13' E 135°06'0 0.0
2015-May-03 08:29N 34°13' E 135°06'0 0.1
2015-May-03 07:32N 34°13' E 135°06'0 0.0
2015-May-03 06:32N 34°13' E 135°06'0 0.1
2015-May-03 05:26N 34°13' E 135°06'0 0.1
2015-May-03 04:32N 34°13' E 135°06'0 0.1
2015-May-03 03:29N 34°13' E 135°06'0 0.2
2015-May-03 02:26N 34°13' E 135°06'0 0.1
2015-May-03 01:32N 34°13' E 135°06'0 0.1
2015-May-03 00:32N 34°13' E 135°05'0 0.0
2015-May-02 23:32N 34°13' E 135°05'0 0.0
2015-May-02 22:32N 34°13' E 135°05'0 0.0
2015-May-02 21:32N 34°13' E 135°05'0 0.1
2015-May-02 20:32N 34°13' E 135°06'0 0.0
2015-May-02 19:26N 34°13' E 135°06'0 0.1
2015-May-02 18:32N 34°13' E 135°05'0 0.1
2015-May-02 17:32N 34°13' E 135°06'0 0.1
2015-May-02 16:32N 34°13' E 135°06'0 0.0
2015-May-02 15:32N 34°13' E 135°06'0 0.0
2015-May-02 14:32N 34°13' E 135°06'0 0.1
2015-May-02 13:32N 34°13' E 135°06'0 0.1
2015-May-02 12:32N 34°13' E 135°06'0 0.1
2015-May-02 11:32N 34°13' E 135°06'0 0.0
2015-May-02 10:32N 34°13' E 135°06'0 0.0
2015-May-02 09:32N 34°13' E 135°06'0 0.0
2015-May-02 08:32N 34°13' E 135°06'0 0.0
2015-May-02 07:32N 34°13' E 135°06'0 0.1
2015-May-02 06:32N 34°13' E 135°06'0 0.0
2015-May-02 05:29N 34°13' E 135°06'0 0.1
2015-May-02 04:29N 34°13' E 135°06'0 0.0
2015-May-02 03:32N 34°13' E 135°06'0 0.3
2015-May-02 02:32N 34°13' E 135°05'0 0.0
2015-May-02 01:32N 34°13' E 135°05'0 0.1
2015-May-02 00:26N 34°13' E 135°06'0 0.1
2015-May-01 23:29N 34°13' E 135°05'0 0.0
2015-May-01 22:32N 34°13' E 135°05'0 0.0
2015-May-01 21:32N 34°13' E 135°05'0 0.0
2015-May-01 20:29N 34°13' E 135°05'0 0.1
2015-May-01 19:32N 34°13' E 135°06'0 0.0
2015-May-01 18:32N 34°13' E 135°06'0 0.2
2015-May-01 17:32N 34°13' E 135°06'0 0.1
2015-May-01 16:32N 34°13' E 135°06'0 0.0
2015-May-01 15:32N 34°13' E 135°06'0 0.0
2015-May-01 14:32N 34°13' E 135°06'0 0.0
2015-May-01 13:32N 34°13' E 135°06'0 0.2
2015-May-01 12:32N 34°13' E 135°06'0 0.2
2015-May-01 11:32N 34°13' E 135°06'0 0.0
2015-May-01 10:32N 34°13' E 135°06'0 0.0
2015-May-01 09:32N 34°13' E 135°06'0 0.0
2015-May-01 08:32N 34°13' E 135°06'0 0.0
2015-May-01 07:32N 34°13' E 135°06'0 0.0
2015-May-01 06:32N 34°13' E 135°06'0 0.1
2015-May-01 05:32N 34°13' E 135°06'0 0.1
2015-May-01 04:32N 34°13' E 135°06'0 0.1
2015-May-01 03:32N 34°13' E 135°06'0 0.0
2015-May-01 02:29N 34°13' E 135°06'0 0.2
2015-May-01 01:29N 34°13' E 135°06'0 0.2
2015-May-01 00:32N 34°13' E 135°05'0 0.0
2015-Apr-30 23:32N 34°13' E 135°05'0 0.0
2015-Apr-30 22:26N 34°13' E 135°05'0 0.3
2015-Apr-30 21:33N 34°13' E 135°06'5 5.4
2015-Apr-30 20:34N 34°09' E 135°01'1311.7
2015-Apr-30 19:25N 33°56' E 134°57'22810.3
2015-Apr-29 21:25N 34°55' E 139°24'1112.6
2015-Apr-29 20:33N 35°02' E 139°34'1212.3
2015-Apr-29 19:33N 35°10' E 139°45'1111.1
2015-Apr-29 18:34N 35°21' E 139°42'7 6.9
2015-Apr-29 17:33N 35°23' E 139°51'1 1.4
2015-Apr-29 16:32N 35°22' E 139°52'0 0.0
2015-Apr-29 15:32N 35°22' E 139°52'0 0.0
2015-Apr-29 14:32N 35°22' E 139°52'0 0.0
2015-Apr-29 13:29N 35°22' E 139°52'0 0.0
2015-Apr-29 12:29N 35°22' E 139°52'0 0.0
2015-Apr-29 11:32N 35°22' E 139°52'0 0.0
2015-Apr-29 10:29N 35°22' E 139°52'0 0.0
2015-Apr-29 09:32N 35°22' E 139°52'0 0.0
2015-Apr-29 08:32N 35°22' E 139°52'0 0.0
2015-Apr-29 07:29N 35°22' E 139°52'0 0.0
2015-Apr-29 06:26N 35°22' E 139°52'0 0.0
2015-Apr-29 05:32N 35°22' E 139°52'0 0.0
2015-Apr-29 04:32N 35°22' E 139°52'0 0.0
2015-Apr-29 03:29N 35°22' E 139°52'0 0.0
2015-Apr-29 02:32N 35°22' E 139°52'0 0.0
2015-Apr-29 01:32N 35°22' E 139°52'0 0.0
2015-Apr-29 00:32N 35°22' E 139°52'0 0.0
2015-Apr-28 23:29N 35°22' E 139°52'0 0.0
2015-Apr-28 22:32N 35°22' E 139°52'0 0.0
2015-Apr-28 21:32N 35°22' E 139°52'0 0.0
2015-Apr-28 20:32N 35°22' E 139°52'0 0.0
2015-Apr-28 19:29N 35°22' E 139°52'0 0.0
2015-Apr-28 18:32N 35°22' E 139°52'0 0.0
2015-Apr-28 17:32N 35°22' E 139°52'0 0.0
2015-Apr-28 16:29N 35°22' E 139°52'0 0.0
2015-Apr-28 15:29N 35°22' E 139°52'0 0.0
2015-Apr-28 14:29N 35°22' E 139°52'0 0.0
2015-Apr-28 13:32N 35°22' E 139°52'0 0.0
2015-Apr-28 12:29N 35°22' E 139°52'0 0.0
2015-Apr-28 11:32N 35°22' E 139°52'0 0.0
2015-Apr-28 10:14N 35°22' E 139°52'0 0.0
2015-Apr-28 09:32N 35°22' E 139°52'0 0.0
2015-Apr-28 08:32N 35°22' E 139°52'0 0.0
2015-Apr-28 07:33N 35°22' E 139°52'4 3.7
2015-Apr-28 06:33N 35°24' E 139°48'4 3.3
2015-Apr-28 05:28N 35°27' E 139°51'0 0.1
2015-Apr-28 04:31N 35°27' E 139°51'0 0.0
2015-Apr-28 03:22N 35°27' E 139°51'0 0.0
2015-Apr-28 02:31N 35°27' E 139°51'0 0.1
2015-Apr-28 01:31N 35°27' E 139°51'0 0.0
2015-Apr-28 00:31N 35°27' E 139°51'0 0.0
2015-Apr-27 23:31N 35°27' E 139°51'0 0.0
2015-Apr-27 22:28N 35°27' E 139°51'0 0.1
2015-Apr-27 21:31N 35°27' E 139°51'0 0.0
2015-Apr-27 20:19N 35°27' E 139°51'0 0.1
2015-Apr-27 19:31N 35°27' E 139°51'0 0.0
2015-Apr-27 18:31N 35°27' E 139°51'0 0.0
2015-Apr-27 17:31N 35°27' E 139°51'0 0.0
2015-Apr-27 16:31N 35°27' E 139°51'0 0.0
2015-Apr-27 15:25N 35°27' E 139°51'0 0.0
2015-Apr-27 14:22N 35°27' E 139°51'0 0.0
2015-Apr-27 13:28N 35°27' E 139°51'0 0.1
2015-Apr-27 12:31N 35°27' E 139°51'0 0.0
2015-Apr-27 11:31N 35°27' E 139°51'0 0.0
2015-Apr-27 10:19N 35°27' E 139°51'0 0.0
2015-Apr-27 09:28N 35°27' E 139°51'0 0.0
2015-Apr-27 08:28N 35°27' E 139°51'0 0.0
2015-Apr-27 07:25N 35°27' E 139°51'0 0.0
2015-Apr-27 06:22N 35°27' E 139°51'0 0.0
2015-Apr-27 05:31N 35°27' E 139°51'0 0.0
2015-Apr-27 04:16N 35°27' E 139°51'0 0.0
2015-Apr-27 03:31N 35°27' E 139°51'0 0.1
2015-Apr-27 02:31N 35°27' E 139°51'0 0.1
2015-Apr-27 01:31N 35°27' E 139°51'0 0.0
2015-Apr-27 00:25N 35°27' E 139°51'0 0.0
2015-Apr-26 23:28N 35°27' E 139°51'0 0.0
2015-Apr-26 22:28N 35°27' E 139°51'0 0.0
2015-Apr-26 21:31N 35°27' E 139°51'0 0.1
2015-Apr-26 20:28N 35°27' E 139°51'0 0.1
2015-Apr-26 19:25N 35°27' E 139°51'0 0.1
2015-Apr-26 18:31N 35°27' E 139°51'0 0.0
2015-Apr-26 17:31N 35°27' E 139°51'0 0.0
2015-Apr-26 16:25N 35°27' E 139°51'0 0.0
2015-Apr-26 15:19N 35°27' E 139°51'0 0.0
2015-Apr-26 14:31N 35°27' E 139°51'0 0.0
2015-Apr-26 13:31N 35°27' E 139°51'0 0.0
2015-Apr-26 12:31N 35°27' E 139°51'0 0.0
2015-Apr-26 11:31N 35°27' E 139°51'0 0.1
2015-Apr-26 10:31N 35°27' E 139°51'0 0.0
2015-Apr-26 09:31N 35°27' E 139°51'0 0.0
2015-Apr-26 08:31N 35°27' E 139°51'0 0.1
2015-Apr-26 07:31N 35°27' E 139°51'0 0.2
2015-Apr-26 06:31N 35°27' E 139°51'0 0.0
2015-Apr-26 05:31N 35°27' E 139°51'0 0.1
2015-Apr-26 04:31N 35°27' E 139°51'0 0.0
2015-Apr-26 03:16N 35°27' E 139°51'0 0.0
2015-Apr-26 02:31N 35°27' E 139°51'0 0.0
2015-Apr-26 01:22N 35°27' E 139°51'0 0.0
2015-Apr-26 00:31N 35°27' E 139°51'0 0.0
2015-Apr-25 23:31N 35°27' E 139°51'0 0.0
2015-Apr-25 22:31N 35°27' E 139°51'0 0.0
2015-Apr-25 21:28N 35°27' E 139°51'0 0.0
2015-Apr-25 20:31N 35°27' E 139°51'0 0.0
2015-Apr-25 19:31N 35°27' E 139°51'0 0.1
2015-Apr-25 18:31N 35°27' E 139°51'0 0.0
2015-Apr-25 17:31N 35°27' E 139°51'0 0.0
2015-Apr-25 16:31N 35°27' E 139°51'0 0.0
2015-Apr-25 15:31N 35°27' E 139°51'0 0.2
2015-Apr-25 14:31N 35°27' E 139°51'0 0.2
2015-Apr-25 13:31N 35°27' E 139°51'0 0.1
2015-Apr-25 12:31N 35°27' E 139°51'0 0.0
2015-Apr-25 11:31N 35°27' E 139°51'0 0.0
2015-Apr-25 10:31N 35°27' E 139°51'0 0.0
2015-Apr-25 09:31N 35°27' E 139°51'0 0.1
2015-Apr-25 08:31N 35°27' E 139°51'0 0.1
2015-Apr-25 07:28N 35°27' E 139°51'0 0.1
2015-Apr-25 06:31N 35°27' E 139°51'0 0.0
2015-Apr-25 05:31N 35°27' E 139°51'0 0.1
2015-Apr-25 04:31N 35°27' E 139°51'0 0.1
2015-Apr-25 03:31N 35°27' E 139°51'0 0.0
2015-Apr-25 02:31N 35°27' E 139°51'0 0.0
2015-Apr-25 01:28N 35°27' E 139°51'0 0.1
2015-Apr-25 00:25N 35°27' E 139°51'0 0.1
2015-Apr-24 23:31N 35°27' E 139°51'0 0.1
2015-Apr-24 22:31N 35°27' E 139°51'0 0.1
2015-Apr-24 21:31N 35°27' E 139°51'0 0.0
2015-Apr-24 20:28N 35°27' E 139°51'0 0.1
2015-Apr-24 19:31N 35°27' E 139°51'0 0.0
2015-Apr-24 18:28N 35°27' E 139°51'0 0.0
2015-Apr-24 17:31N 35°27' E 139°51'0 0.0
2015-Apr-24 16:33N 35°27' E 139°51'0 0.0
2015-Apr-24 15:32N 35°27' E 139°51'0 0.0
2015-Apr-24 14:33N 35°27' E 139°51'0 0.0
2015-Apr-24 13:33N 35°27' E 139°51'0 0.0
2015-Apr-24 12:33N 35°27' E 139°51'0 0.0
2015-Apr-24 11:33N 35°27' E 139°51'0 0.0
2015-Apr-24 10:33N 35°27' E 139°51'0 0.0
2015-Apr-24 09:33N 35°27' E 139°51'0 0.0
2015-Apr-24 08:33N 35°27' E 139°51'0 0.0
2015-Apr-24 07:33N 35°27' E 139°51'0 0.0
2015-Apr-24 06:33N 35°27' E 139°51'0 0.0
2015-Apr-24 05:30N 35°27' E 139°51'0 0.1
2015-Apr-24 04:33N 35°27' E 139°51'0 0.1
2015-Apr-24 03:33N 35°27' E 139°51'0 0.2
2015-Apr-24 02:33N 35°27' E 139°51'0 0.1
2015-Apr-24 01:33N 35°27' E 139°51'0 0.1
2015-Apr-24 00:33N 35°27' E 139°51'0 0.2
2015-Apr-23 23:33N 35°27' E 139°51'0 0.1
2015-Apr-23 22:33N 35°27' E 139°51'0 0.0
2015-Apr-23 21:33N 35°27' E 139°51'0 0.1
2015-Apr-23 20:33N 35°27' E 139°51'0 0.0
2015-Apr-23 19:27N 35°27' E 139°51'  

Dump ship's entire track history